MMTC/TRC METAR and TAF weather

Enter ICAO airport designator
Station Type Date Time Source
MMTC METAR 2019/12/14 16:41 UTC NOAA

MMTC 141641Z 11003KT 10SM SKC 18/M02 A3009


Station Type Date Time Source
MMTC Decoded METAR 2019/12/14 16:41 UTC NOAA

Torreon, Coah., Mexico (MMTC) 25-32N 103-27W 1150M
Dec 14, 2019 - 11:41 AM EST / 2019.12.14 1641 UTC
Wind: from the ESE (110 degrees) at 3 MPH (3 KT):0
Visibility: 10 mile(s):0
Sky conditions: clear
Temperature: 64 F (18 C)
Dew Point: 28 F (-2 C)
Relative Humidity: 25%
Pressure (altimeter): 30.09 in. Hg (1018 hPa)
ob: MMTC 141641Z 11003KT 10SM SKC 18/M02 A3009
cycle: 16

Station Type Date Time Source
MMTC TAF 2019/12/14 18:58 UTC NOAA

TAF MMTC 141651Z 1418/1518 22010KT P6SM SKC
BECMG 1504/1505 22005KT
FM151700 22010KT P6SM SKC

Example: see airport list